Time;durP1;ratioP1;P1;durP2;ratioP2;P2;SDS_P1;SDS_P2;PMS_P1;PMS_P2;Temp;Humidity;BMP_temperature;BMP_pressure;BME280_temperature;BME280_humidity;BME280_pressure;Samples;Min_cycle;Max_cycle;Signal;HPM_P1;HPM_P2
2022/12/24 00:01:05;;;;;;;2.05;0.95;;;;;;;11.50;78.33;96104.03;4921159;29;20493;-76
2022/12/24 00:03:32;;;;;;;2.47;0.85;;;;;;;11.51;77.90;96100.41;4920671;29;20044;-77
2022/12/24 00:06:04;;;;;;;1.88;0.90;;;;;;;11.50;78.16;96114.47;4920527;29;20051;-78
2022/12/24 00:08:31;;;;;;;1.65;0.68;;;;;;;11.50;79.01;96116.28;4901972;29;20590;-76
2022/12/24 00:11:00;;;;;;;3.10;1.00;;;;;;;11.49;78.41;96123.31;4902475;29;20052;-77
2022/12/24 00:13:28;;;;;;;3.83;1.00;;;;;;;11.46;77.90;96120.31;4920124;29;20048;-77
2022/12/24 00:15:55;;;;;;;3.30;1.27;;;;;;;11.44;78.22;96120.50;4920066;29;20066;-77
2022/12/24 00:18:23;;;;;;;2.20;0.85;;;;;;;11.44;77.90;96119.69;4920320;29;20066;-78
2022/12/24 00:20:51;;;;;;;2.45;0.93;;;;;;;11.42;77.96;96114.66;4919320;29;20052;-77
2022/12/24 00:23:19;;;;;;;1.20;0.70;;;;;;;11.42;77.39;96111.25;4924409;29;20135;-79
2022/12/24 00:25:47;;;;;;;1.95;0.70;;;;;;;11.41;78.29;96110.44;4923485;29;20056;-78
2022/12/24 00:28:16;;;;;;;3.72;1.33;;;;;;;11.39;77.20;96120.28;4924234;29;20565;-78
2022/12/24 00:30:44;;;;;;;3.53;1.02;;;;;;;11.39;77.33;96116.84;4924103;29;20075;-78
2022/12/24 00:33:12;;;;;;;6.03;1.52;;;;;;;11.37;77.10;96117.06;4924304;29;20593;-78
2022/12/24 00:35:40;;;;;;;2.47;0.93;;;;;;;11.35;76.99;96121.69;4890310;29;1007750;-77
2022/12/24 00:38:08;;;;;;;3.58;1.10;;;;;;;11.33;76.60;96118.47;4923697;29;20056;-78
2022/12/24 00:40:36;;;;;;;4.78;1.02;;;;;;;11.32;76.26;96127.28;4924122;29;20498;-79
2022/12/24 00:43:03;;;;;;;3.00;0.75;;;;;;;11.31;76.54;96136.13;4923938;29;20131;-78
2022/12/24 00:45:32;;;;;;;1.50;0.98;;;;;;;11.31;76.52;96131.72;4923406;29;20060;-78
2022/12/24 00:48:00;;;;;;;2.30;0.77;;;;;;;11.31;76.16;96126.50;4923431;29;20071;-77
2022/12/24 00:50:27;;;;;;;2.15;0.95;;;;;;;11.31;76.88;96131.72;4923183;29;20421;-77
2022/12/24 00:52:55;;;;;;;2.85;0.90;;;;;;;11.30;76.53;96131.91;4923146;29;20413;-77
2022/12/24 00:55:23;;;;;;;4.15;0.75;;;;;;;11.30;76.67;96137.13;4922332;29;20546;-78
2022/12/24 00:57:50;;;;;;;3.17;1.38;;;;;;;11.31;76.27;96138.75;4920925;29;20052;-78
2022/12/24 01:00:18;;;;;;;6.93;1.08;;;;;;;11.31;76.15;96134.31;4922679;29;20059;-78
2022/12/24 01:02:47;;;;;;;2.83;1.17;;;;;;;11.30;76.44;96135.34;4922884;29;20052;-78
2022/12/24 01:05:19;;;;;;;3.42;0.70;;;;;;;11.29;76.27;96144.16;4922084;29;20111;-77
2022/12/24 01:07:48;;;;;;;2.65;1.00;;;;;;;11.29;75.83;96148.59;4921683;29;20059;-79
2022/12/24 01:10:19;;;;;;;4.32;0.75;;;;;;;11.28;75.70;96146.97;4921658;29;20521;-77
2022/12/24 01:12:46;;;;;;;4.63;0.70;;;;;;;11.28;75.74;96152.19;4921693;29;20052;-76
2022/12/24 01:15:17;;;;;;;3.13;0.95;;;;;;;11.28;75.31;96167.84;4921331;29;20430;-77
2022/12/24 01:17:44;;;;;;;1.45;0.73;;;;;;;11.27;75.53;96172.28;4919320;29;20048;-76
2022/12/24 01:20:16;;;;;;;3.75;1.00;;;;;;;11.28;76.30;96179.13;4919899;29;20080;-77
2022/12/24 01:22:44;;;;;;;5.18;1.42;;;;;;;11.29;75.77;96195.59;4919615;29;20070;-76
2022/12/24 01:25:12;;;;;;;2.20;1.05;;;;;;;11.29;75.81;96203.41;4919161;29;20517;-76
2022/12/24 01:27:40;;;;;;;1.88;0.70;;;;;;;11.28;75.98;96204.41;4919666;29;20059;-76
2022/12/24 01:30:13;;;;;;;2.78;0.93;;;;;;;11.28;76.32;96204.41;4919101;29;20056;-79
2022/12/24 01:32:40;;;;;;;;;;;;;;;11.27;76.23;96197.59;4922027;29;20134;-77
2022/12/24 01:35:09;;;;;;;1.98;0.80;;;;;;;11.21;76.51;96203.59;4922427;29;19923;-77
2022/12/24 01:37:38;;;;;;;3.72;1.50;;;;;;;11.19;76.46;96210.81;4922070;29;20056;-78
2022/12/24 01:45:48;;;;;;;4.15;1.00;;;;;;;11.14;77.47;96227.84;4921936;29;20155;-77
2022/12/24 01:48:28;;;;;;;6.57;1.33;;;;;;;11.12;77.27;96231.66;4921779;29;20100;-77
2022/12/24 01:51:02;;;;;;;7.47;1.00;;;;;;;11.09;76.86;96235.47;4922060;29;20052;-77
2022/12/24 01:53:34;;;;;;;3.53;0.80;;;;;;;11.07;76.97;96232.25;4921826;29;20059;-76
2022/12/24 01:56:03;;;;;;;1.73;0.80;;;;;;;11.05;77.19;96223.81;4921401;29;20426;-76
2022/12/24 01:58:33;;;;;;;5.97;1.00;;;;;;;11.04;77.46;96232.63;4922012;29;20055;-76
2022/12/24 02:01:01;;;;;;;4.80;1.20;;;;;;;11.03;77.73;96238.03;4922054;29;20052;-76
2022/12/24 02:03:28;;;;;;;4.70;0.70;;;;;;;11.01;77.60;96238.22;4921341;29;20052;-77
2022/12/24 02:05:59;;;;;;;3.92;1.08;;;;;;;10.98;77.82;96245.66;4921397;29;20435;-77
2022/12/24 02:08:38;;;;;;;3.15;0.90;;;;;;;10.99;77.90;96255.09;4921646;29;20088;-80
2022/12/24 02:11:12;;;;;;;4.80;1.08;;;;;;;10.97;77.64;96257.88;4922645;29;20135;-77
2022/12/24 02:13:41;;;;;;;4.25;1.15;;;;;;;10.95;77.72;96270.31;4924099;29;20063;-77
2022/12/24 02:16:21;;;;;;;6.78;1.38;;;;;;;10.94;78.25;96276.53;4925721;29;20052;-79
2022/12/24 02:18:59;;;;;;;5.72;1.25;;;;;;;10.93;78.04;96286.19;4924107;29;20475;-77
2022/12/24 02:21:53;;;;;;;6.97;1.15;;;;;;;10.95;78.73;96298.22;4925380;29;20079;-77
2022/12/24 02:24:49;;;;;;;2.65;1.00;;;;;;;10.93;78.44;96295.78;4923404;29;20131;-76
2022/12/24 02:27:26;;;;;;;3.75;1.13;;;;;;;10.92;79.12;96315.06;4920002;29;20135;-80
2022/12/24 02:30:03;;;;;;;3.88;1.20;;;;;;;10.93;79.26;96321.88;4923514;29;20142;-77
2022/12/24 02:32:37;;;;;;;6.50;1.80;;;;;;;10.94;79.74;96323.50;4923426;29;20059;-77
2022/12/24 02:35:10;;;;;;;3.75;1.13;;;;;;;10.95;79.81;96319.91;4923066;29;20058;-77
2022/12/24 02:37:42;;;;;;;5.95;1.83;;;;;;;10.93;79.91;96311.44;4918935;29;20055;-79
2022/12/24 02:40:13;;;;;;;5.40;1.30;;;;;;;10.91;79.37;96308.22;4923873;29;20063;-77
2022/12/24 02:42:48;;;;;;;3.15;0.88;;;;;;;10.88;79.55;96314.63;4923017;29;20776;-78
2022/12/24 02:45:20;;;;;;;7.03;3.08;;;;;;;10.87;79.32;96323.47;4924855;29;20044;-78
2022/12/24 02:47:49;;;;;;;3.33;1.67;;;;;;;10.85;79.10;96329.88;4906432;29;20052;-79
2022/12/24 02:50:18;;;;;;;4.05;2.22;;;;;;;10.83;79.02;96337.09;4918657;29;20056;-78
2022/12/24 02:52:46;;;;;;;4.70;1.50;;;;;;;10.81;78.74;96339.09;4925242;29;20106;-78
2022/12/24 02:55:17;;;;;;;7.43;1.83;;;;;;;10.80;78.86;96329.63;4924648;29;20069;-77
2022/12/24 02:58:10;;;;;;;5.32;1.50;;;;;;;10.80;78.55;96329.63;4922078;29;20044;-78
2022/12/24 03:00:56;;;;;;;6.00;1.20;;;;;;;10.80;78.46;96335.66;4922335;29;20099;-77
2022/12/24 03:03:36;;;;;;;5.22;1.30;;;;;;;10.79;79.79;96335.84;4922109;29;20517;-77
2022/12/24 03:06:13;;;;;;;4.72;1.58;;;;;;;10.78;78.74;96339.44;4922340;29;20092;-77
2022/12/24 03:08:49;;;;;;;5.82;1.52;;;;;;;10.79;79.04;96354.13;4923130;29;20075;-77
2022/12/24 03:11:18;;;;;;;4.63;0.98;;;;;;;10.77;78.26;96358.72;4923033;29;20572;-76
2022/12/24 03:13:48;;;;;;;6.55;1.23;;;;;;;10.75;78.13;96352.88;4921792;29;20056;-76
2022/12/24 03:16:23;;;;;;;6.90;1.77;;;;;;;10.74;78.90;96359.91;4922182;29;20079;-77
2022/12/24 03:18:53;;;;;;;5.60;1.60;;;;;;;10.72;78.45;96354.88;4924166;29;20075;-77
2022/12/24 03:21:25;;;;;;;8.57;2.35;;;;;;;10.72;79.05;96354.06;4923837;29;20051;-78
2022/12/24 03:23:54;;;;;;;;;;;;;;;10.74;79.43;96361.72;4921806;29;20056;-77
2022/12/24 03:26:22;;;;;;;7.00;1.13;;;;;;;10.71;79.19;96361.09;4904369;29;19924;-77
2022/12/24 03:28:50;;;;;;;7.65;1.80;;;;;;;10.73;79.58;96368.72;4904903;29;20508;-78
2022/12/24 03:31:19;;;;;;;6.72;1.73;;;;;;;10.72;79.81;96378.34;4923272;29;20071;-76
2022/12/24 03:33:47;;;;;;;7.38;1.95;;;;;;;10.74;79.49;96372.16;4926198;29;20070;-78
2022/12/24 05:21:40;;;;;;;9.05;2.30;;;;;;;10.62;80.02;96456.09;5317079;23;20066;-82
2022/12/24 05:27:34;;;;;;;6.45;1.58;;;;;;;10.57;79.82;96470.69;4933074;29;20056;-82
2022/12/24 05:30:08;;;;;;;5.50;1.50;;;;;;;10.55;80.06;96460.44;4929912;29;20052;-82
2022/12/24 05:35:33;;;;;;;4.55;1.38;;;;;;;10.54;80.14;96461.44;4930753;29;20080;-82
2022/12/24 05:38:13;;;;;;;7.18;1.85;;;;;;;10.53;79.12;96457.22;4927856;29;20083;-82
2022/12/24 05:41:04;;;;;;;6.88;1.50;;;;;;;10.52;79.06;96455.63;4930052;29;20100;-81
2022/12/24 05:46:33;;;;;;;5.32;1.80;;;;;;;10.51;79.64;96444.34;4932039;29;20052;-82
2022/12/24 05:49:16;;;;;;;6.57;2.13;;;;;;;10.51;79.04;96448.75;4931621;29;20060;-82
2022/12/24 05:52:20;;;;;;;3.90;1.75;;;;;;;10.50;79.08;96453.19;4932803;29;20056;-81
2022/12/24 05:55:28;;;;;;;6.50;1.42;;;;;;;10.49;80.49;96448.97;4932739;29;20056;-81
2022/12/24 05:58:03;;;;;;;7.78;1.77;;;;;;;10.51;80.15;96460.00;4933045;29;20052;-83
2022/12/24 06:03:38;;;;;;;5.75;1.48;;;;;;;10.50;80.06;96437.53;4932962;29;20091;-82
2022/12/24 06:06:24;;;;;;;5.95;2.10;;;;;;;10.50;80.02;96447.16;4931915;29;20052;-82
2022/12/24 06:09:02;;;;;;;4.25;1.23;;;;;;;10.50;80.47;96460.19;4930344;29;20490;-82
2022/12/24 06:11:46;;;;;;;3.35;1.77;;;;;;;10.49;79.71;96462.00;4926610;29;20056;-82
2022/12/24 06:14:37;;;;;;;5.15;1.63;;;;;;;10.49;80.33;96461.19;4916738;29;20052;-82
2022/12/24 06:17:16;;;;;;;8.32;2.35;;;;;;;10.46;79.28;96459.75;4931889;29;20058;-82
2022/12/24 06:20:27;;;;;;;6.15;1.77;;;;;;;10.44;79.61;96466.16;4931080;29;20305;-82
2022/12/24 06:26:21;;;;;;;6.35;1.98;;;;;;;10.39;80.47;96473.72;4931829;29;20059;-82
2022/12/24 06:29:10;;;;;;;6.35;1.60;;;;;;;10.36;79.85;96474.88;4931746;29;20052;-82
2022/12/24 06:31:52;;;;;;;7.97;1.85;;;;;;;10.34;79.33;96474.25;4917628;29;20079;-82
2022/12/24 06:34:31;;;;;;;9.80;2.03;;;;;;;10.34;79.57;96469.03;4932731;29;20062;-82
2022/12/24 06:40:07;;;;;;;10.05;2.05;;;;;;;10.34;80.59;96463.81;4919447;29;20071;-82
2022/12/24 07:00:38;;;;;;;4.20;2.00;;;;;;;10.36;80.89;96513.97;5221941;23;20127;-80
2022/12/24 07:03:06;;;;;;;7.40;2.03;;;;;;;10.36;81.06;96518.41;4922678;29;20052;-81
2022/12/24 07:05:35;;;;;;;7.85;1.60;;;;;;;10.36;80.69;96524.41;4925636;29;20100;-81
2022/12/24 07:08:02;;;;;;;7.15;2.13;;;;;;;10.33;79.79;96534.41;4940519;29;20145;-81
2022/12/24 07:10:30;;;;;;;7.50;2.40;;;;;;;10.30;78.88;96535.59;4937413;29;20052;-81
2022/12/24 07:12:58;;;;;;;5.40;1.65;;;;;;;10.29;78.38;96539.19;4927038;29;20048;-81
2022/12/24 07:15:25;;;;;;;7.45;1.48;;;;;;;10.28;78.88;96537.53;4926564;29;20052;-81
2022/12/24 07:17:53;;;;;;;7.03;2.20;;;;;;;10.27;78.97;96535.91;4927010;29;20076;-81
2022/12/24 07:20:21;;;;;;;5.10;1.23;;;;;;;10.24;78.17;96542.28;4930316;29;20036;-81
2022/12/24 07:22:51;;;;;;;4.75;1.80;;;;;;;10.20;77.36;96541.03;4986154;23;20116;-83
2022/12/24 07:33:11;;;;;;;10.00;2.80;;;;;;;10.18;78.53;96569.09;4940589;29;20152;-80
2022/12/24 07:38:16;;;;;;;5.30;2.22;;;;;;;10.20;79.72;96577.53;4980336;23;20047;-82
2022/12/24 07:40:45;;;;;;;5.15;1.70;;;;;;;10.21;79.70;96563.53;4994046;23;20039;-81
2022/12/24 07:43:14;;;;;;;4.80;1.67;;;;;;;10.18;79.19;96569.09;4931081;29;20092;-79
2022/12/24 07:45:41;;;;;;;3.97;1.48;;;;;;;10.19;79.68;96581.13;4913775;29;20060;-79
2022/12/24 07:48:09;;;;;;;9.38;1.92;;;;;;;10.17;78.31;96572.69;4919894;29;20052;-80
2022/12/24 07:50:36;;;;;;;29.10;15.10;;;;;;;10.16;78.18;96568.44;4922564;29;20055;-80
2022/12/24 07:53:04;;;;;;;33.97;16.33;;;;;;;10.17;78.40;96577.91;4923440;29;20644;-80
2022/12/24 07:55:33;;;;;;;12.65;5.00;;;;;;;10.17;78.38;96583.13;4920217;29;20498;-79
2022/12/24 07:58:01;;;;;;;7.05;2.20;;;;;;;10.19;78.99;96594.19;4918897;29;20059;-78
2022/12/24 08:00:28;;;;;;;6.18;1.92;;;;;;;10.19;78.80;96588.97;4906120;29;20052;-78
2022/12/24 08:02:57;;;;;;;4.43;1.80;;;;;;;10.20;78.86;96594.97;4920308;29;20562;-78
2022/12/24 08:05:25;;;;;;;7.10;2.13;;;;;;;10.18;78.84;96595.16;4901728;29;20055;-79
2022/12/24 08:07:53;;;;;;;6.65;2.28;;;;;;;10.18;79.38;96595.16;4898997;29;20052;-79
2022/12/24 08:10:20;;;;;;;8.55;2.28;;;;;;;10.19;79.54;96599.38;4913143;29;20052;-79
2022/12/24 08:12:49;;;;;;;3.00;2.00;;;;;;;10.17;79.19;96598.75;4922022;29;20052;-80
2022/12/24 08:15:17;;;;;;;9.57;2.30;;;;;;;10.15;78.93;96589.50;4909218;29;20054;-80
2022/12/24 08:17:44;;;;;;;5.53;2.05;;;;;;;10.14;78.97;96599.09;4906758;29;20064;-80
2022/12/24 08:20:12;;;;;;;7.50;2.67;;;;;;;10.14;79.34;96601.69;4905874;29;20056;-80
2022/12/24 08:22:40;;;;;;;10.10;2.55;;;;;;;10.12;79.19;96603.69;4913290;29;20423;-80
2022/12/24 08:25:09;;;;;;;6.03;2.10;;;;;;;10.10;79.79;96609.09;4914559;29;20116;-80
2022/12/24 08:27:36;;;;;;;6.03;2.30;;;;;;;10.10;80.38;96603.88;4921116;29;20056;-80
2022/12/24 08:30:07;;;;;;;8.68;2.70;;;;;;;10.11;80.11;96607.28;4917861;29;20060;-79
2022/12/24 08:32:35;;;;;;;6.75;2.40;;;;;;;10.12;80.01;96606.28;4906978;29;20052;-80
2022/12/24 08:35:02;;;;;;;8.52;2.88;;;;;;;10.14;80.31;96608.72;4907391;29;20083;-80
2022/12/24 08:37:30;;;;;;;7.47;2.30;;;;;;;10.14;80.00;96604.31;5035297;23;20135;-76
2022/12/24 08:39:58;;;;;;;7.05;2.10;;;;;;;10.16;79.96;96610.16;4896561;29;20530;-78
2022/12/24 08:42:25;;;;;;;5.07;1.98;;;;;;;10.17;79.79;96618.81;4897956;29;20045;-78
2022/12/24 08:44:55;;;;;;;7.03;2.30;;;;;;;10.16;78.62;96623.19;4901770;29;20427;-78
2022/12/24 08:47:24;;;;;;;6.20;1.80;;;;;;;10.20;79.71;96628.88;4902258;29;20084;-79
2022/12/24 08:49:51;;;;;;;4.97;1.80;;;;;;;10.23;80.07;96634.53;4900623;29;20136;-79
2022/12/24 08:52:19;;;;;;;7.07;2.58;;;;;;;10.27;80.81;96638.38;4901313;29;20048;-78
2022/12/24 08:54:46;;;;;;;7.70;2.22;;;;;;;10.29;80.66;96646.06;4900848;29;20056;-77
2022/12/24 08:57:14;;;;;;;8.27;2.30;;;;;;;10.28;79.73;96653.06;4903232;29;20048;-80
2022/12/24 08:59:42;;;;;;;9.05;2.05;;;;;;;10.30;80.36;96648.50;4902430;29;20048;-79
2022/12/24 09:02:09;;;;;;;6.28;2.95;;;;;;;10.31;80.50;96657.94;4902830;29;20080;-79
2022/12/24 09:04:39;;;;;;;6.60;1.92;;;;;;;10.33;80.74;96659.56;4903975;29;20186;-80
2022/12/24 09:07:07;;;;;;;6.00;1.75;;;;;;;10.34;79.35;96661.16;4909646;29;20059;-78
2022/12/24 09:09:35;;;;;;;9.25;2.10;;;;;;;10.35;79.30;96663.63;4904775;29;20499;-80
2022/12/24 09:12:05;;;;;;;7.82;2.13;;;;;;;10.37;80.09;96671.25;4906699;29;20408;-79
2022/12/24 09:14:33;;;;;;;7.57;2.58;;;;;;;10.37;78.80;96676.47;4914564;29;20058;-78
2022/12/24 09:17:00;;;;;;;8.60;2.83;;;;;;;10.33;77.60;96670.81;4910941;29;20132;-79
2022/12/24 09:19:28;;;;;;;10.35;3.58;;;;;;;10.29;77.28;96669.53;4906836;29;20080;-79
2022/12/24 09:21:57;;;;;;;7.57;3.13;;;;;;;10.29;79.38;96675.56;4903314;29;20042;-78
2022/12/24 09:24:25;;;;;;;12.60;4.55;;;;;;;10.31;78.59;96689.22;4902005;29;20587;-78
2022/12/24 09:26:52;;;;;;;5.72;2.42;;;;;;;10.33;77.48;96685.63;4903312;29;20066;-76
2022/12/24 09:29:24;;;;;;;11.60;3.10;;;;;;;10.33;77.65;96676.00;4886758;29;20061;-77
2022/12/24 09:31:53;;;;;;;10.80;3.60;;;;;;;10.33;77.58;96676.00;4895891;29;20044;-77
2022/12/24 09:34:21;;;;;;;7.78;2.83;;;;;;;10.33;76.48;96675.22;4899889;29;20053;-78
2022/12/24 09:36:59;;;;;;;5.45;2.22;;;;;;;10.34;78.12;96687.25;4961201;23;20075;-78
2022/12/24 09:39:27;;;;;;;8.85;2.45;;;;;;;10.36;79.05;96696.50;4953599;29;20420;-78
2022/12/24 09:42:07;;;;;;;7.90;2.53;;;;;;;10.39;79.59;96706.59;4959567;29;20111;-77
2022/12/24 09:44:43;;;;;;;9.32;2.80;;;;;;;10.41;78.99;96701.22;4963726;29;20425;-78
2022/12/24 09:47:21;;;;;;;6.95;2.60;;;;;;;10.44;80.18;96699.03;4952331;29;20112;-82
2022/12/24 09:49:53;;;;;;;9.27;2.75;;;;;;;10.45;79.36;96695.47;4938548;29;20055;-77
2022/12/24 09:52:30;;;;;;;8.90;3.50;;;;;;;10.48;79.13;96697.69;4930189;29;20056;-79
2022/12/24 09:55:04;;;;;;;8.75;2.30;;;;;;;10.51;79.28;96699.13;4930514;29;20139;-84
2022/12/24 09:57:37;;;;;;;6.63;2.10;;;;;;;10.55;77.87;96700.41;4930702;29;20054;-81
2022/12/24 10:00:05;;;;;;;;;;;;;;;10.65;77.49;96705.38;4935958;29;20139;-81
2022/12/24 10:02:33;;;;;;;7.38;2.22;;;;;;;10.68;77.19;96711.03;4951111;29;19933;-85
2022/12/24 10:05:00;;;;;;;7.32;2.30;;;;;;;10.72;77.16;96717.50;4939867;29;20056;-81
2022/12/24 10:07:40;;;;;;;7.85;2.53;;;;;;;10.76;75.61;96711.91;4934913;29;20319;-79
2022/12/24 10:10:18;;;;;;;8.45;2.30;;;;;;;10.80;75.87;96711.41;4937792;29;20143;-77
2022/12/24 10:12:53;;;;;;;11.48;2.20;;;;;;;10.84;74.72;96714.44;4930520;29;20052;-81
2022/12/24 10:15:28;;;;;;;9.52;2.50;;;;;;;10.87;74.23;96707.06;4932998;29;20060;-80
2022/12/24 10:18:08;;;;;;;8.90;1.70;;;;;;;10.92;74.31;96706.53;4948306;29;20067;-79
2022/12/24 10:20:45;;;;;;;7.97;2.28;;;;;;;10.94;72.55;96709.78;4940769;29;20056;-82
2022/12/24 10:23:20;;;;;;;7.47;2.33;;;;;;;10.96;73.20;96707.78;4929681;29;20056;-78
2022/12/24 10:25:56;;;;;;;7.63;1.75;;;;;;;10.96;71.31;96710.41;4929858;29;20064;-82
2022/12/24 10:28:29;;;;;;;9.15;2.33;;;;;;;10.97;71.71;96706.78;4929104;29;20112;-80
2022/12/24 10:31:02;;;;;;;5.95;1.60;;;;;;;10.98;71.54;96703.19;4928488;29;20515;-80
2022/12/24 10:33:32;;;;;;;;;;;;;;;11.03;72.14;96707.88;4929939;29;20076;-80
2022/12/24 10:36:01;;;;;;;10.45;2.38;;;;;;;11.03;70.76;96713.91;4927815;29;19923;-81
2022/12/24 10:38:37;;;;;;;7.43;1.80;;;;;;;11.04;71.51;96720.75;4935467;29;20056;-79
2022/12/24 10:41:05;;;;;;;5.72;2.30;;;;;;;11.07;73.37;96714.34;4943334;29;20052;-73
2022/12/24 10:43:33;;;;;;;8.57;1.83;;;;;;;11.08;72.32;96708.94;4932130;29;20116;-78
2022/12/24 10:46:05;;;;;;;11.18;2.25;;;;;;;11.12;72.79;96718.03;4947530;29;20131;-84
2022/12/24 10:48:40;;;;;;;13.73;1.70;;;;;;;11.19;73.95;96715.50;4942257;29;20048;-82
2022/12/24 10:51:21;;;;;;;7.50;1.92;;;;;;;11.27;73.46;96704.16;4945219;29;20395;-78
2022/12/24 10:53:56;;;;;;;11.20;2.40;;;;;;;11.31;73.92;96710.63;4943298;29;20056;-79
2022/12/24 10:56:23;;;;;;;15.27;2.53;;;;;;;11.33;74.28;96708.63;4928333;29;20056;-86
2022/12/24 10:58:53;;;;;;;7.60;2.17;;;;;;;11.37;73.92;96715.13;4926219;29;20059;-82
2022/12/24 11:01:41;;;;;;;7.78;2.42;;;;;;;11.43;73.21;96714.38;4924161;29;20048;-83
2022/12/24 11:04:16;;;;;;;7.85;1.73;;;;;;;11.54;71.72;96713.91;4926586;29;20425;-82
2022/12/24 11:06:53;;;;;;;6.75;2.00;;;;;;;11.65;70.74;96722.22;4925772;29;20056;-85
2022/12/24 11:09:24;;;;;;;8.18;2.17;;;;;;;11.74;70.51;96713.28;4928460;29;20056;-86
2022/12/24 11:11:52;;;;;;;10.15;2.08;;;;;;;11.82;70.93;96705.31;4929348;29;20062;-87
2022/12/24 11:14:21;;;;;;;4.55;1.73;;;;;;;11.90;70.43;96704.44;4930273;29;20056;-87
2022/12/24 11:16:52;;;;;;;7.10;1.73;;;;;;;11.98;69.04;96706.09;4928861;29;20443;-82
2022/12/24 11:19:28;;;;;;;6.82;1.73;;;;;;;12.05;70.39;96706.97;4928599;29;20054;-85
2022/12/24 11:22:03;;;;;;;5.03;1.50;;;;;;;12.10;70.91;96700.16;4929086;29;20124;-84
2022/12/24 11:24:34;;;;;;;7.90;2.05;;;;;;;12.19;70.13;96702.66;4928652;29;20052;-84
2022/12/24 11:27:29;;;;;;;6.40;1.70;;;;;;;12.28;68.91;96696.28;4928347;29;20138;-85
2022/12/24 11:30:28;;;;;;;6.93;2.55;;;;;;;12.36;70.28;96701.38;4927443;29;20426;-83
2022/12/24 11:33:18;;;;;;;8.25;2.60;;;;;;;12.43;69.76;96694.38;4916208;29;20062;-85
2022/12/24 11:35:49;;;;;;;11.52;2.20;;;;;;;12.43;67.24;96694.38;4926577;29;20430;-83
2022/12/24 11:38:21;;;;;;;7.30;2.13;;;;;;;12.47;66.74;96694.81;4926680;29;20059;-81
2022/12/24 11:40:57;;;;;;;7.32;2.05;;;;;;;12.52;66.74;96690.63;4926511;29;20127;-79
2022/12/24 11:43:43;;;;;;;8.05;2.80;;;;;;;12.55;66.84;96689.41;4925522;29;20126;-80
2022/12/24 11:46:34;;;;;;;7.70;2.38;;;;;;;12.58;65.66;96697.69;4925878;29;20052;-80
2022/12/24 11:49:15;;;;;;;10.15;2.67;;;;;;;12.59;65.26;96706.34;4924926;29;20488;-80
2022/12/24 11:52:02;;;;;;;5.90;2.13;;;;;;;12.59;65.23;96698.50;4926034;29;20518;-79
2022/12/24 11:54:34;;;;;;;8.05;2.17;;;;;;;12.56;65.10;96702.31;4925284;29;20059;-80
2022/12/24 11:57:03;;;;;;;7.95;2.80;;;;;;;12.52;66.28;96702.91;4925305;29;20059;-85
2022/12/24 11:59:36;;;;;;;10.32;2.42;;;;;;;12.50;64.62;96704.88;4926424;29;20052;-84
2022/12/24 12:02:13;;;;;;;;;;;;;;;12.50;65.80;96702.28;4929635;29;20048;-84
2022/12/24 12:04:44;;;;;;;7.15;2.00;;;;;;;12.46;65.99;96706.25;4928503;29;19978;-82
2022/12/24 12:07:14;;;;;;;7.90;2.67;;;;;;;12.42;65.82;96713.72;4929398;29;20052;-84
2022/12/24 12:09:46;;;;;;;8.93;2.20;;;;;;;12.39;65.11;96697.56;4929649;29;20062;-84
2022/12/24 12:12:18;;;;;;;10.48;2.15;;;;;;;12.38;67.18;96702.00;4930646;29;20442;-85
2022/12/24 12:14:48;;;;;;;;;;;;;;;12.40;66.22;96699.19;4931062;29;20082;-85
2022/12/24 12:17:30;;;;;;;9.20;2.05;;;;;;;12.39;65.90;96689.72;4928719;29;20021;-85
2022/12/24 12:20:02;;;;;;;7.82;2.15;;;;;;;12.46;65.60;96683.56;4929817;29;20058;-85
2022/12/24 12:22:38;;;;;;;6.68;1.60;;;;;;;12.57;64.89;96684.81;4929997;29;20055;-84
2022/12/24 12:25:17;;;;;;;9.05;3.05;;;;;;;12.72;64.63;96677.63;4931018;29;20111;-85
2022/12/24 12:27:49;;;;;;;9.27;2.30;;;;;;;12.85;65.69;96684.75;4915101;29;20131;-84
2022/12/24 12:30:19;;;;;;;9.73;2.90;;;;;;;12.95;64.81;96677.38;4930194;29;20052;-85
2022/12/24 12:32:53;;;;;;;9.85;3.08;;;;;;;13.04;65.63;96680.63;4930086;29;20070;-85
2022/12/24 12:35:25;;;;;;;5.32;2.40;;;;;;;13.10;65.49;96682.47;4929534;29;20051;-86
2022/12/24 12:37:57;;;;;;;6.85;1.80;;;;;;;13.16;65.54;96679.06;4929245;29;20063;-83
2022/12/24 12:40:39;;;;;;;11.18;2.53;;;;;;;13.19;64.43;96697.00;4930140;29;20067;-84
2022/12/24 12:43:22;;;;;;;9.30;2.20;;;;;;;13.18;64.71;96687.56;4930531;29;20056;-80
2022/12/24 12:45:57;;;;;;;10.43;2.42;;;;;;;13.16;65.29;96700.03;4930207;29;20062;-80
2022/12/24 12:48:42;;;;;;;9.30;2.53;;;;;;;13.11;63.13;96702.41;4929662;29;20139;-83
2022/12/24 12:51:20;;;;;;;8.77;2.42;;;;;;;13.07;64.36;96700.38;4930090;29;20080;-85
2022/12/24 12:54:00;;;;;;;9.30;2.25;;;;;;;13.04;64.25;96708.63;4929501;29;20063;-81
2022/12/24 12:56:31;;;;;;;6.65;1.80;;;;;;;12.97;63.30;96706.78;4930020;29;20052;-87
2022/12/24 12:59:03;;;;;;;6.53;2.03;;;;;;;12.93;63.15;96708.16;4929683;29;20058;-80
2022/12/24 13:01:42;;;;;;;10.00;2.55;;;;;;;12.91;65.92;96709.38;4929767;29;20048;-80
2022/12/24 13:04:50;;;;;;;5.95;1.80;;;;;;;12.91;65.45;96719.84;4929988;29;20048;-87
2022/12/24 13:07:42;;;;;;;9.52;2.88;;;;;;;12.90;65.89;96710.34;4930209;29;20151;-85
2022/12/24 13:10:30;;;;;;;6.97;1.88;;;;;;;12.84;65.60;96719.00;4930204;29;20056;-85
2022/12/24 13:13:15;;;;;;;7.18;2.45;;;;;;;12.80;65.01;96713.34;4930092;29;20048;-82
2022/12/24 13:16:13;;;;;;;5.63;1.90;;;;;;;12.75;66.04;96727.00;4929675;29;20060;-85
2022/12/24 13:18:51;;;;;;;9.63;2.25;;;;;;;12.72;66.52;96730.00;4925957;29;20052;-84
2022/12/24 13:21:22;;;;;;;9.00;2.58;;;;;;;12.67;65.41;96732.38;4928075;29;20062;-79
2022/12/24 13:23:50;;;;;;;9.10;2.50;;;;;;;12.62;66.20;96734.78;4926983;29;20115;-80
2022/12/24 13:26:18;;;;;;;11.85;2.67;;;;;;;12.56;66.65;96740.75;4929501;29;20060;-84
2022/12/24 13:28:46;;;;;;;7.57;2.78;;;;;;;12.51;66.10;96732.69;4935933;29;20052;-83
2022/12/24 13:31:28;;;;;;;6.68;2.10;;;;;;;12.45;66.14;96731.63;4938001;29;20056;-85
2022/12/24 13:34:02;;;;;;;9.27;2.30;;;;;;;12.41;66.74;96719.91;4933427;29;20062;-86
2022/12/24 13:37:02;;;;;;;7.55;2.05;;;;;;;12.41;68.33;96726.97;4933466;29;20525;-82
2022/12/24 13:40:16;;;;;;;11.65;3.03;;;;;;;12.38;68.30;96732.59;4933066;29;20054;-83
2022/12/24 13:43:05;;;;;;;6.35;1.73;;;;;;;12.34;67.69;96738.19;4927517;29;20056;-82
2022/12/24 13:45:46;;;;;;;9.93;2.50;;;;;;;12.30;67.89;96747.41;4932699;29;20056;-85
2022/12/24 13:48:28;;;;;;;6.90;2.63;;;;;;;12.26;68.71;96743.53;4931245;29;20156;-87
2022/12/24 13:50:59;;;;;;;8.38;2.55;;;;;;;12.23;68.83;96741.31;4929087;29;20052;-82
2022/12/24 13:53:31;;;;;;;9.48;2.95;;;;;;;12.16;69.19;96735.22;4931003;29;20053;-84
2022/12/24 13:56:06;;;;;;;9.25;2.83;;;;;;;12.12;70.33;96744.44;4931660;29;20099;-84
2022/12/24 13:58:36;;;;;;;10.13;2.20;;;;;;;12.09;70.16;96750.03;4931048;29;20056;-86
2022/12/24 14:01:08;;;;;;;11.30;2.70;;;;;;;12.06;71.08;96742.56;4927318;29;20055;-83
2022/12/24 14:03:44;;;;;;;13.70;3.15;;;;;;;12.03;70.96;96748.19;4929338;29;20446;-84
2022/12/24 14:06:22;;;;;;;8.40;2.55;;;;;;;11.99;70.56;96745.13;4929939;29;20063;-81
2022/12/24 14:08:54;;;;;;;7.68;2.90;;;;;;;11.97;71.54;96759.38;4928777;29;20411;-82
2022/12/24 14:11:24;;;;;;;8.88;2.47;;;;;;;11.97;71.91;96759.38;4929132;29;20083;-85
2022/12/24 14:14:11;;;;;;;4.55;1.48;;;;;;;11.95;72.60;96756.94;4928893;29;20194;-81
2022/12/24 14:16:45;;;;;;;13.38;2.88;;;;;;;11.91;71.10;96751.28;4928468;29;20072;-78
2022/12/24 14:19:19;;;;;;;6.38;2.40;;;;;;;11.89;71.56;96755.06;4928713;29;20154;-79
2022/12/24 14:21:54;;;;;;;8.00;3.00;;;;;;;11.85;71.13;96757.25;4928863;29;20418;-82
2022/12/24 14:24:25;;;;;;;9.75;3.05;;;;;;;11.83;72.23;96750.56;4928450;29;20063;-83
2022/12/24 14:26:56;;;;;;;10.32;2.83;;;;;;;11.81;72.94;96745.53;4927960;29;20060;-81
2022/12/24 14:29:28;;;;;;;10.05;3.25;;;;;;;11.81;73.60;96740.31;4927303;29;20120;-79
2022/12/24 14:31:58;;;;;;;14.65;5.13;;;;;;;11.80;71.76;96733.44;4928203;29;20052;-80
2022/12/24 14:34:28;;;;;;;9.70;3.83;;;;;;;11.78;72.22;96742.47;4928083;29;20055;-81
2022/12/24 14:36:56;;;;;;;11.75;4.82;;;;;;;11.75;71.78;96736.63;4928894;29;20098;-79
2022/12/24 14:39:28;;;;;;;11.95;4.60;;;;;;;11.72;71.51;96733.59;4928177;29;20062;-84
2022/12/24 14:42:04;;;;;;;10.63;5.83;;;;;;;11.67;71.81;96734.13;4927587;29;20071;-82